Flight Track Log - Related Links

Times and Time Zones

All times are in EDT time to prevent confusion due to time zone crossing. See the ASH3738 flight status page for this flight to view local times or setup timezone preferences in your user account.

Time Position Orientation Groundspeed Altitude Reporting Facility
EDT Latitude Longitude Course Direction KTS MPH feet Rate Location/Type
Tue 07:05:46 PM 32.8833 -97.0333 164° South 169 194 1,400  Level Dallas / Fort Worth TRACON
Tue 07:06:52 PM 32.8333 -97.0167 164° South 216 249 3,700 2,333 Climbing Dallas / Fort Worth TRACON
Tue 07:07:52 PM 32.7833 -96.9667 140° Southeast 264 304 6,300 2,392 Climbing Dallas / Fort Worth TRACON
Tue 07:09:30 PM 32.7842 -96.8378 90° East 249 287 10,000 1,937 Climbing Fort Worth Center
Tue 07:10:30 PM 32.8653 -96.8150 13° North 263 303 11,400 1,950 Climbing Fort Worth Center
Tue 07:11:30 PM 32.9739 -96.8117 North 305 351 13,900 2,300 Climbing Fort Worth Center
Tue 07:12:30 PM 33.0658 -96.8136 359° North 352 405 16,000 2,300 Climbing Fort Worth Center
Tue 07:13:30 PM 33.1786 -96.8153 359° North 374 430 18,500 2,150 Climbing Fort Worth Center
Tue 07:14:30 PM 33.2767 -96.8194 358° North 381 438 20,300 1,950 Climbing Fort Worth Center
Tue 07:15:30 PM 33.3956 -96.8164 North 381 438 22,400 1,950 Climbing Fort Worth Center
Tue 07:16:30 PM 33.4892 -96.7533 29° Northeast 375 432 24,200 1,650 Climbing Fort Worth Center
Tue 07:17:30 PM 33.5828 -96.6728 36° Northeast 394 453 25,700 1,400 Climbing Fort Worth Center
Tue 07:18:30 PM 33.6761 -96.5947 35° Northeast 406 467 27,000 1,300 Climbing Fort Worth Center
Tue 07:19:30 PM 33.7736 -96.5139 35° Northeast 420 483 28,300 1,300 Climbing Fort Worth Center
Tue 07:20:30 PM 33.8689 -96.4328 35° Northeast 420 483 29,600 1,300 Climbing Fort Worth Center
Tue 07:21:30 PM 33.9644 -96.3517 35° Northeast 420 483 30,900 1,300 Climbing Fort Worth Center
Tue 07:22:30 PM 34.0639 -96.2678 35° Northeast 420 483 32,200 1,200 Climbing Fort Worth Center
Tue 07:23:30 PM 34.1589 -96.1836 36° Northeast 420 483 33,300 1,150 Climbing Fort Worth Center
Tue 07:24:30 PM 34.2583 -96.0994 35° Northeast 420 483 34,500 1,200 Climbing Fort Worth Center
Tue 07:25:30 PM 34.3556 -96.0147 36° Northeast 420 483 35,700 1,100 Climbing Fort Worth Center
Tue 07:26:30 PM 34.4525 -95.9328 35° Northeast 420 483 36,700 650 Climbing Fort Worth Center
Tue 07:27:30 PM 34.5517 -95.8478 35° Northeast 420 483 37,000 150 Climbing Fort Worth Center
Tue 07:28:30 PM 34.6508 -95.7628 35° Northeast 425 489 37,000  Level Fort Worth Center
Tue 07:29:30 PM 34.7581 -95.6722 35° Northeast 438 504 37,000  Level Fort Worth Center
Tue 07:31:09 PM 34.9206 -95.5361 34° Northeast 447 514 37,000  Level Memphis Center
Tue 07:32:10 PM 35.0244 -95.4464 35° Northeast 452 520 37,000  Level Memphis Center
Tue 07:33:10 PM 35.1261 -95.3558 36° Northeast 452 520 37,000  Level Memphis Center
Tue 07:34:10 PM 35.2297 -95.2681 35° Northeast 452 520 37,000  Level Memphis Center
Tue 07:35:10 PM 35.3269 -95.1822 36° Northeast 442 509 37,000  Level Memphis Center
Tue 07:36:09 PM 35.4264 -95.0936 36° Northeast 442 509 37,000  Level Memphis Center
Tue 07:37:10 PM 35.5256 -95.0050 36° Northeast 442 509 37,000  Level Memphis Center
Tue 07:38:09 PM 35.6269 -94.9161 35° Northeast 442 509 37,000  Level Memphis Center
Tue 07:39:10 PM 35.7261 -94.8269 36° Northeast 442 509 37,000  Level Memphis Center
Tue 07:40:09 PM 35.8275 -94.7350 36° Northeast 442 509 37,000  Level Memphis Center
Tue 07:41:09 PM 35.9394 -94.6333 36° Northeast 442 509 37,000  Level Memphis Center
Tue 07:42:10 PM 36.0406 -94.5436 36° Northeast 447 514 37,000  Level Memphis Center
Tue 07:43:50 PM 36.2022 -94.3964 36° Northeast 445 512 37,000  Level Kansas City Center
Tue 07:44:52 PM 36.2997 -94.3061 37° Northeast 442 509 37,000  Level Kansas City Center
Tue 07:45:54 PM 36.3989 -94.2169 36° Northeast 441 507 37,000  Level Kansas City Center
Tue 07:46:56 PM 36.4978 -94.1269 36° Northeast 441 507 37,000  Level Kansas City Center
Tue 07:47:58 PM 36.5953 -94.0369 37° Northeast 440 506 37,000  Level Kansas City Center
Tue 07:49:00 PM 36.7122 -93.9289 37° Northeast 438 504 37,000  Level Kansas City Center
Tue 07:50:02 PM 36.8089 -93.8397 36° Northeast 436 502 37,000  Level Kansas City Center
Tue 07:51:04 PM 36.9058 -93.7497 37° Northeast 433 498 37,000  Level Kansas City Center
Tue 07:52:06 PM 37.0022 -93.6619 36° Northeast 431 496 37,000  Level Kansas City Center
Tue 07:53:08 PM 37.0981 -93.5742 36° Northeast 429 494 37,000  Level Kansas City Center
Tue 07:54:10 PM 37.1931 -93.4833 37° Northeast 428 493 37,000  Level Kansas City Center
Tue 07:55:12 PM 37.3078 -93.3761 37° Northeast 427 491 37,000  Level Kansas City Center
Tue 07:56:14 PM 37.4044 -93.2883 36° Northeast 427 491 37,000  Level Kansas City Center
Tue 07:57:16 PM 37.4997 -93.1994 36° Northeast 426 490 37,000  Level Kansas City Center
Tue 07:58:18 PM 37.5953 -93.1106 36° Northeast 425 489 37,000  Level Kansas City Center
Tue 07:59:20 PM 37.6925 -93.0219 36° Northeast 428 493 37,000  Level Kansas City Center
Tue 08:00:22 PM 37.7878 -92.9331 36° Northeast 425 489 37,000  Level Kansas City Center
Tue 08:01:24 PM 37.8839 -92.8433 36° Northeast 425 489 37,000  Level Kansas City Center
Tue 08:02:26 PM 37.9869 -92.7467 36° Northeast 425 489 37,000  Level Kansas City Center
Tue 08:03:28 PM 38.0819 -92.6575 36° Northeast 425 489 37,000  Level Kansas City Center
Tue 08:04:30 PM 38.1933 -92.5547 36° Northeast 426 490 37,000  Level Kansas City Center
Tue 08:05:32 PM 38.2897 -92.4631 37° Northeast 427 491 37,000  Level Kansas City Center
Tue 08:06:34 PM 38.3856 -92.3708 37° Northeast 427 491 37,000  Level Kansas City Center
Tue 08:07:36 PM 38.4814 -92.2803 36° Northeast 426 490 37,000 -532 Level Kansas City Center
Tue 08:08:38 PM 38.5786 -92.1875 37° Northeast 427 491 35,900 -968 Descending Kansas City Center
Tue 08:09:40 PM 38.6781 -92.0914 37° Northeast 437 503 35,000 -435 Descending Kansas City Center
Tue 08:10:42 PM 38.7783 -91.9958 37° Northeast 443 510 35,000  Level Kansas City Center
Tue 08:11:44 PM 38.8944 -91.8828 37° Northeast 440 506 35,000  Level Kansas City Center
Tue 08:12:46 PM 38.9933 -91.7864 37° Northeast 441 507 35,000  Level Kansas City Center
Tue 08:13:48 PM 39.0936 -91.6897 37° Northeast 446 513 35,000  Level Kansas City Center
Tue 08:14:50 PM 39.1950 -91.5892 38° Northeast 452 520 35,000  Level Kansas City Center
Tue 08:15:52 PM 39.2956 -91.4900 37° Northeast 455 524 35,000  Level Kansas City Center
Tue 08:16:54 PM 39.3936 -91.3925 38° Northeast 449 517 35,000 -339 Level Kansas City Center
Tue 08:17:56 PM 39.4906 -91.2986 37° Northeast 441 507 34,300 -823 Descending Kansas City Center
Tue 08:18:58 PM 39.5878 -91.2003 38° Northeast 441 507 33,300 -634 Descending Kansas City Center
Tue 08:19:59 PM 39.7125 -91.0961 33° Northeast 442 509 33,000 -146 Descending Kansas City Center
Tue 08:21:01 PM 39.8283 -91.0264 25° Northeast 441 507 33,000  Level Kansas City Center
Tue 08:22:03 PM 39.9428 -90.9581 25° Northeast 443 510 33,000  Level Kansas City Center
Tue 08:23:05 PM 40.0511 -90.8772 30° Northeast 451 519 33,000  Level Kansas City Center
Tue 08:24:07 PM 40.1483 -90.7697 40° Northeast 457 526 33,000  Level Kansas City Center
Tue 08:25:02 PM 40.2242 -90.6836 41° Northeast 452 520 33,000  Level Chicago Center
Tue 08:26:04 PM 40.3381 -90.5531 41° Northeast 452 520 33,000  Level Chicago Center
Tue 08:27:06 PM 40.4314 -90.4444 42° Northeast 448 516 33,000  Level Chicago Center
Tue 08:28:08 PM 40.5256 -90.3361 41° Northeast 447 514 33,000 -387 Level Chicago Center
Tue 08:29:10 PM 40.6278 -90.2178 41° Northeast 450 518 32,200 -1,065 Descending Chicago Center
Tue 08:30:12 PM 40.7219 -90.1078 42° Northeast 454 522 30,800 -1,403 Descending Chicago Center
Tue 08:31:14 PM 40.8106 -89.9903 45° Northeast 452 520 29,300 -1,548 Descending Chicago Center
Tue 08:32:16 PM 40.8828 -89.8597 54° Northeast 445 512 27,600 -1,645 Descending Chicago Center
Tue 08:33:18 PM 40.9497 -89.7294 56° Northeast 436 502 25,900 -1,548 Descending Chicago Center
Tue 08:34:20 PM 41.0319 -89.5883 52° Northeast 466 536 24,400 -1,500 Descending Chicago Center
Tue 08:35:22 PM 41.1253 -89.4192 54° Northeast 472 543 22,800 -1,597 Descending Chicago Center
Tue 08:36:24 PM 41.1989 -89.2869 53° Northeast 444 511 21,100 -1,790 Descending Chicago Center
Tue 08:37:26 PM 41.2669 -89.1611 54° Northeast 437 503 19,100 -2,323 Descending Chicago Center
Tue 08:38:28 PM 41.3350 -89.0333 55° Northeast 429 494 16,300 -2,565 Descending Chicago Center
Tue 08:39:30 PM 41.4025 -88.9081 54° Northeast 419 482 13,800 -2,419 Descending Chicago Center
Tue 08:40:32 PM 41.4794 -88.7675 54° Northeast 397 457 11,300 -1,355 Descending Chicago Center
Tue 08:41:34 PM 41.5375 -88.6450 58° Northeast 390 449 11,000 -145 Descending Chicago Center
Tue 08:42:36 PM 41.5872 -88.5164 63° Northeast 390 449 11,000  Level Chicago Center
Tue 08:43:38 PM 41.6481 -88.4008 55° Northeast 380 437 11,000 -242 Level Chicago Center
Tue 08:44:40 PM 41.7083 -88.2953 53° Northeast 351 404 10,500 -919 Descending Chicago Center
Tue 08:45:42 PM 41.7628 -88.2033 52° Northeast 316 364 9,100 -1,403 Descending Chicago Center
Tue 08:46:44 PM 41.8253 -88.0964 52° Northeast 304 350 7,600 -1,008 Descending Chicago Center
Tue 08:47:41 PM 41.9000 -88.0667 16° North 263 303 7,100 -254 Descending Chicago TRACON
Tue 08:48:42 PM 41.9667 -88.0667 360° North 242 278 7,100  Level Chicago TRACON
Tue 08:49:42 PM 42.0167 -88.1000 334° Northwest 195 224 7,100 -450 Level Chicago TRACON
Tue 08:50:42 PM 42.0500 -88.1500 312° West 203 234 6,200 -1,200 Descending Chicago TRACON
Tue 08:51:42 PM 42.1000 -88.1833 334° Northwest 212 244 4,700 -1,050 Descending Chicago TRACON
Tue 08:52:42 PM 42.1500 -88.1333 37° Northeast 218 251 4,100 -450 Descending Chicago TRACON
Tue 08:53:42 PM 42.1167 -88.0667 124° Southeast 169 194 3,800 -526 Descending Chicago TRACON
Tue 08:54:36 PM 42.0833 -88.0333 143° Southeast 165 190 3,100 -842 Descending Chicago TRACON
Tue 08:55:36 PM 42.0500 -88.0000 143° Southeast 158 182 2,200 -750 Descending Chicago TRACON
Tue 08:56:36 PM 42.0167 -87.9667 143° Southeast 122 140 1,600 -645 Descending Chicago TRACON
Tue 08:57:37 PM 42.0000 -87.9333 124° Southeast 128 147 900 -689 Descending Chicago TRACON
Tue 08:59:00 PM 41.9817 -87.9067 140° Southeast  Level Estimated

Login

Don't have an account? Register now (free) for customized features, flight alerts, and more!